Ararat, North Carolina
Current Conditions -  °F | °C
As of 5:35 AM on Saturday 25 Oct 2014 (Local Time) from KMWK Reporting Station
Clear Clear  
Wind Chill: 11°   Ceiling: Unl
Heat Index: 11°   Visibility: 10mi
Dew Point:   Wind: 3mph
Humidity: 63%   Direction: 340°NNW
Pressure: 30.03"   Gusts: NA
Location:  36.4°N, 80.56°W
Report Text: KMWK 250935Z AUTO 34003KT 10SM CLR 11/04 A3003 RMK AO2 T01070040
Loading
Personal Weather Stations






























Interactive Weather Map
Tropical Storm Tracking
New forecast layout! Learn more

10-Day Weather Forecast

Advertisements
Track Severe Weather on mobile